createdAt,value
2022-09-15T00:00:43.342Z,1.40
2022-09-15T00:04:07.160Z,1.50
2022-09-15T00:07:12.681Z,1.60
2022-09-15T00:10:15.898Z,2.10
2022-09-15T00:13:20.298Z,2.40
2022-09-15T00:16:24.829Z,2.20
2022-09-15T00:19:27.785Z,1.80
2022-09-15T00:22:30.647Z,1.80
2022-09-15T00:25:33.632Z,2.10
2022-09-15T00:28:37.445Z,2.50
2022-09-15T00:31:40.382Z,2.40
2022-09-15T00:34:43.778Z,2.40
2022-09-15T00:37:47.046Z,2.00
2022-09-15T00:40:53.704Z,2.60
2022-09-15T00:43:56.676Z,2.70
2022-09-15T00:47:18.298Z,2.40
2022-09-15T00:50:23.621Z,2.30
2022-09-15T00:53:27.693Z,2.00
2022-09-15T00:56:33.840Z,2.00
2022-09-15T00:59:40.350Z,2.10
2022-09-15T01:02:45.358Z,2.70
2022-09-15T01:05:53.967Z,2.50
2022-09-15T01:12:23.191Z,1.80
2022-09-15T01:15:32.587Z,2.50
2022-09-15T01:18:54.306Z,2.40
2022-09-15T01:22:29.000Z,2.40
2022-09-15T01:26:09.734Z,2.00
2022-09-15T01:29:40.748Z,2.00
2022-09-15T01:33:11.551Z,2.10
2022-09-15T01:36:28.444Z,2.10
2022-09-15T01:39:40.325Z,2.90
2022-09-15T01:42:45.357Z,1.70
2022-09-15T01:45:51.449Z,1.80
2022-09-15T01:48:56.809Z,2.50
2022-09-15T01:52:00.502Z,2.30
2022-09-15T01:55:12.580Z,2.20
2022-09-15T01:58:15.755Z,2.00
2022-09-15T02:02:01.277Z,1.80
2022-09-15T02:05:20.903Z,2.30
2022-09-15T02:08:33.642Z,2.30
2022-09-15T02:11:40.334Z,1.90
2022-09-15T02:14:56.265Z,1.60
2022-09-15T02:18:05.491Z,2.00
2022-09-15T02:21:19.922Z,2.10
2022-09-15T02:24:32.448Z,1.80
2022-09-15T02:27:44.903Z,1.90
2022-09-15T02:30:49.405Z,2.00
2022-09-15T02:34:00.337Z,2.10
2022-09-15T02:37:05.243Z,1.50
2022-09-15T02:40:09.134Z,1.50
2022-09-15T02:43:15.209Z,1.70
2022-09-15T02:46:21.267Z,2.20
2022-09-15T02:50:14.697Z,1.80
2022-09-15T02:53:19.508Z,1.60
2022-09-15T02:56:23.994Z,1.90
2022-09-15T02:59:27.172Z,1.90
2022-09-15T03:02:30.499Z,1.70
2022-09-15T03:05:33.529Z,1.30
2022-09-15T03:08:36.398Z,1.70
2022-09-15T03:11:39.983Z,1.90
2022-09-15T03:14:44.799Z,1.40
2022-09-15T03:17:48.893Z,1.60
2022-09-15T03:20:56.777Z,2.00
2022-09-15T03:24:00.874Z,1.90
2022-09-15T03:27:04.553Z,1.90
2022-09-15T03:30:09.406Z,1.40
2022-09-15T03:33:12.461Z,1.80
2022-09-15T03:36:15.323Z,1.70
2022-09-15T03:39:18.210Z,1.40
2022-09-15T03:42:21.063Z,1.80
2022-09-15T03:45:25.327Z,1.50
2022-09-15T03:48:31.215Z,1.80
2022-09-15T03:51:34.073Z,1.30
2022-09-15T03:54:38.173Z,1.70
2022-09-15T03:57:41.040Z,1.50
2022-09-15T04:00:44.353Z,1.60
2022-09-15T04:03:50.926Z,1.00
2022-09-15T04:06:54.260Z,1.40
2022-09-15T04:09:57.739Z,1.30
2022-09-15T04:13:00.611Z,1.80
2022-09-15T04:16:08.268Z,1.30
2022-09-15T04:19:12.184Z,1.60
2022-09-15T04:22:17.892Z,1.80
2022-09-15T04:25:21.298Z,2.20
2022-09-15T04:28:26.163Z,1.40
2022-09-15T04:31:29.243Z,1.90
2022-09-15T04:34:39.263Z,1.50
2022-09-15T04:37:44.239Z,2.40
2022-09-15T04:40:47.275Z,1.30
2022-09-15T04:43:50.388Z,1.90
2022-09-15T04:46:56.787Z,2.10
2022-09-15T04:50:00.024Z,2.20
2022-09-15T04:53:03.300Z,1.90
2022-09-15T04:56:14.292Z,2.10
2022-09-15T04:59:20.328Z,2.20
2022-09-15T05:02:25.886Z,1.80
2022-09-15T05:05:30.158Z,2.40
2022-09-15T05:08:33.663Z,1.70
2022-09-15T05:11:36.943Z,1.90
2022-09-15T05:14:40.143Z,2.20
2022-09-15T05:17:43.550Z,1.90
2022-09-15T05:20:46.930Z,2.10
2022-09-15T05:23:52.157Z,2.20
2022-09-15T05:26:55.437Z,3.10
2022-09-15T05:30:34.831Z,2.40
2022-09-15T05:34:02.288Z,2.00
2022-09-15T05:37:20.408Z,2.30
2022-09-15T05:41:12.546Z,2.60
2022-09-15T05:44:15.598Z,1.90
2022-09-15T05:47:18.691Z,2.10
2022-09-15T05:50:48.611Z,2.30
2022-09-15T05:53:52.143Z,2.50
2022-09-15T05:56:59.296Z,1.90
2022-09-15T06:00:02.814Z,1.70
2022-09-15T06:03:16.508Z,1.90
2022-09-15T06:06:48.500Z,2.30
2022-09-15T06:09:51.487Z,1.70
2022-09-15T06:12:55.483Z,1.50
2022-09-15T06:16:10.698Z,1.30
2022-09-15T06:19:14.105Z,2.30
2022-09-15T06:22:17.075Z,1.40
2022-09-15T06:25:20.047Z,1.30
2022-09-15T06:28:25.069Z,1.90
2022-09-15T06:31:30.100Z,2.40
2022-09-15T06:34:33.571Z,2.00
2022-09-15T06:37:36.952Z,1.80
2022-09-15T06:40:39.937Z,2.00
2022-09-15T06:43:43.289Z,3.00
2022-09-15T06:46:46.300Z,2.20
2022-09-15T06:49:49.553Z,2.70
2022-09-15T06:52:52.427Z,2.30
2022-09-15T06:55:55.299Z,2.70
2022-09-15T06:58:59.670Z,2.00
2022-09-15T07:02:10.046Z,2.40
2022-09-15T07:05:13.632Z,2.00
2022-09-15T07:08:17.416Z,2.70
2022-09-15T07:11:21.213Z,2.10
2022-09-15T07:14:26.327Z,1.60
2022-09-15T07:17:29.409Z,2.00
2022-09-15T07:20:34.249Z,2.70
2022-09-15T07:23:37.602Z,1.80
2022-09-15T07:26:41.389Z,2.00
2022-09-15T07:29:44.366Z,2.30
2022-09-15T07:32:47.231Z,2.40
2022-09-15T07:35:50.206Z,1.80
2022-09-15T07:38:53.437Z,1.60
2022-09-15T07:41:56.353Z,1.60
2022-09-15T07:44:59.225Z,2.50
2022-09-15T07:48:02.608Z,2.30
2022-09-15T07:51:05.789Z,1.80
2022-09-15T07:54:08.961Z,2.00
2022-09-15T07:57:12.036Z,2.10
2022-09-15T08:00:15.896Z,2.50
2022-09-15T08:03:19.215Z,1.70
2022-09-15T08:06:24.584Z,1.80
2022-09-15T08:10:19.019Z,2.20
2022-09-15T08:13:23.577Z,2.00
2022-09-15T08:16:43.427Z,1.30
2022-09-15T08:19:47.455Z,1.70
2022-09-15T08:22:53.308Z,1.80
2022-09-15T08:25:59.165Z,1.70
2022-09-15T08:29:02.515Z,1.80
2022-09-15T08:32:05.867Z,1.60
2022-09-15T08:35:09.693Z,1.90
2022-09-15T08:38:12.559Z,2.00
2022-09-15T08:41:22.703Z,1.20
2022-09-15T08:44:47.259Z,1.40
2022-09-15T08:47:56.305Z,1.40
2022-09-15T08:51:04.177Z,1.40
2022-09-15T08:54:14.697Z,1.30
2022-09-15T08:57:23.097Z,1.90
2022-09-15T09:00:27.391Z,1.60
2022-09-15T09:03:48.559Z,1.40
2022-09-15T09:07:19.109Z,0.80
2022-09-15T09:10:48.763Z,1.10
2022-09-15T09:17:21.234Z,1.20
2022-09-15T09:20:43.835Z,0.90
2022-09-15T09:23:54.789Z,0.70
2022-09-15T09:26:59.306Z,1.20
2022-09-15T09:30:15.811Z,1.30
2022-09-15T09:33:31.334Z,1.10
2022-09-15T09:36:34.409Z,1.20
2022-09-15T09:39:40.253Z,1.10
2022-09-15T09:42:45.183Z,1.00
2022-09-15T09:45:48.173Z,0.60
2022-09-15T09:49:12.497Z,0.90
2022-09-15T09:52:45.568Z,1.00
2022-09-15T09:55:48.538Z,0.90
2022-09-15T09:58:52.427Z,0.80
2022-09-15T10:02:12.290Z,0.80
2022-09-15T10:05:20.573Z,1.10
2022-09-15T10:08:23.548Z,1.30
2022-09-15T10:11:59.293Z,0.70
2022-09-15T10:15:05.485Z,0.80
2022-09-15T10:18:28.235Z,0.90
2022-09-15T10:21:31.203Z,0.90
2022-09-15T10:24:38.888Z,0.80
2022-09-15T10:27:41.960Z,0.80
2022-09-15T10:31:03.875Z,0.80
2022-09-15T10:34:36.516Z,0.90
2022-09-15T10:37:53.935Z,0.90
2022-09-15T10:41:26.256Z,0.70
2022-09-15T10:44:52.572Z,1.00
2022-09-15T10:47:58.192Z,1.00
2022-09-15T10:51:17.770Z,0.80
2022-09-15T10:54:50.218Z,0.70
2022-09-15T10:58:19.267Z,1.00
2022-09-15T11:01:28.166Z,0.80
2022-09-15T11:05:00.204Z,1.00
2022-09-15T11:08:32.236Z,0.60
2022-09-15T11:11:48.713Z,0.90
2022-09-15T11:15:54.674Z,1.10
2022-09-15T11:19:18.467Z,1.00
2022-09-15T11:22:27.706Z,0.90
2022-09-15T11:25:35.745Z,1.30
2022-09-15T11:29:03.720Z,1.00
2022-09-15T11:32:15.997Z,1.10
2022-09-15T11:35:38.310Z,1.50
2022-09-15T11:38:54.998Z,1.00
2022-09-15T11:42:06.066Z,1.10
2022-09-15T11:45:20.612Z,1.00
2022-09-15T11:48:43.108Z,1.30
2022-09-15T11:52:03.887Z,1.20
2022-09-15T11:55:41.727Z,0.80
2022-09-15T11:59:12.045Z,1.20
2022-09-15T12:02:25.074Z,0.80
2022-09-15T12:05:36.322Z,0.90
2022-09-15T12:09:02.915Z,0.70
2022-09-15T12:12:14.620Z,0.60
2022-09-15T12:15:27.451Z,1.00
2022-09-15T12:18:47.551Z,1.10
2022-09-15T12:21:56.766Z,0.90
2022-09-15T12:25:22.761Z,1.00
2022-09-15T12:28:27.871Z,1.00
2022-09-15T12:31:32.464Z,0.80
2022-09-15T12:34:38.707Z,0.90
2022-09-15T12:37:56.869Z,1.10
2022-09-15T12:40:59.839Z,1.10
2022-09-15T12:44:18.273Z,0.70
2022-09-15T12:47:55.510Z,0.90
2022-09-15T12:51:05.340Z,1.00
2022-09-15T12:54:17.314Z,0.60
2022-09-15T12:57:30.132Z,0.80
2022-09-15T13:01:16.596Z,0.80
2022-09-15T13:04:13.831Z,0.90
2022-09-15T13:07:21.761Z,0.50
2022-09-15T13:10:39.567Z,0.90
2022-09-15T13:13:48.625Z,0.80
2022-09-15T13:17:14.721Z,0.90
2022-09-15T13:20:27.486Z,0.60
2022-09-15T13:23:38.952Z,0.80
2022-09-15T13:26:45.001Z,0.90
2022-09-15T13:30:00.310Z,0.40
2022-09-15T13:33:22.104Z,0.70
2022-09-15T13:40:48.151Z,0.60
2022-09-15T13:44:29.499Z,0.60
2022-09-15T13:47:44.445Z,0.60
2022-09-15T13:51:00.017Z,0.70
2022-09-15T13:54:06.558Z,0.80
2022-09-15T13:57:09.742Z,0.50
2022-09-15T14:00:22.290Z,0.70
2022-09-15T14:03:37.042Z,0.70
2022-09-15T14:06:43.364Z,0.60
2022-09-15T14:09:49.874Z,0.70
2022-09-15T14:12:54.714Z,0.60
2022-09-15T14:16:12.573Z,0.60
2022-09-15T14:19:33.976Z,0.50
2022-09-15T14:22:40.966Z,0.50
2022-09-15T14:25:46.178Z,0.50
2022-09-15T14:28:52.311Z,0.50
2022-09-15T14:32:01.979Z,0.60
2022-09-15T14:35:09.554Z,0.60
2022-09-15T14:38:24.227Z,0.60
2022-09-15T14:41:32.867Z,1.00
2022-09-15T14:48:08.716Z,0.70
2022-09-15T14:51:23.424Z,0.60
2022-09-15T14:54:33.062Z,0.40
2022-09-15T14:57:40.951Z,0.50
2022-09-15T15:00:53.266Z,0.60
2022-09-15T15:04:10.931Z,0.70
2022-09-15T15:07:27.896Z,0.50
2022-09-15T15:10:35.652Z,0.60
2022-09-15T15:16:58.300Z,0.60
2022-09-15T15:20:10.513Z,0.60
2022-09-15T15:23:24.429Z,0.50
2022-09-15T15:26:35.907Z,0.60
2022-09-15T15:29:40.792Z,0.50
2022-09-15T15:32:44.415Z,0.70
2022-09-15T15:36:02.538Z,0.50
2022-09-15T15:39:08.020Z,0.40
2022-09-15T15:42:16.300Z,0.80
2022-09-15T15:45:25.878Z,0.50
2022-09-15T15:48:35.413Z,0.40
2022-09-15T15:51:41.753Z,0.50
2022-09-15T15:54:44.705Z,0.50
2022-09-15T15:57:53.650Z,0.40
2022-09-15T16:00:57.799Z,0.60
2022-09-15T16:04:05.059Z,0.60
2022-09-15T16:07:33.617Z,0.90
2022-09-15T16:10:50.229Z,0.50
2022-09-15T16:13:54.028Z,0.70
2022-09-15T16:16:59.944Z,0.60
2022-09-15T16:20:03.109Z,0.60
2022-09-15T16:23:07.421Z,0.50
2022-09-15T16:26:15.709Z,0.70
2022-09-15T16:29:18.578Z,0.50
2022-09-15T16:32:22.618Z,0.50
2022-09-15T16:35:35.617Z,0.60
2022-09-15T16:38:38.754Z,0.80
2022-09-15T16:41:42.031Z,0.60
2022-09-15T16:44:47.660Z,0.60
2022-09-15T16:47:51.660Z,0.60
2022-09-15T16:51:24.680Z,0.60
2022-09-15T16:54:20.499Z,0.50
2022-09-15T16:57:23.704Z,0.60
2022-09-15T17:00:29.197Z,0.50
2022-09-15T17:03:33.129Z,0.70
2022-09-15T17:06:36.761Z,0.40
2022-09-15T17:09:40.535Z,0.60
2022-09-15T17:12:44.304Z,0.70
2022-09-15T17:15:47.994Z,0.70
2022-09-15T17:18:50.961Z,0.60
2022-09-15T17:21:55.336Z,1.00
2022-09-15T17:24:58.438Z,1.30
2022-09-15T17:28:03.576Z,1.00
2022-09-15T17:31:12.347Z,0.90
2022-09-15T17:34:15.549Z,0.80
2022-09-15T17:37:18.622Z,1.10
2022-09-15T17:40:21.997Z,0.90
2022-09-15T17:43:35.041Z,0.90
2022-09-15T17:46:38.012Z,1.00
2022-09-15T17:49:41.678Z,0.90
2022-09-15T17:52:46.506Z,0.70
2022-09-15T17:55:51.598Z,0.60
2022-09-15T17:58:54.584Z,0.50
2022-09-15T18:01:58.543Z,0.80
2022-09-15T18:05:02.471Z,0.70
2022-09-15T18:08:06.469Z,0.80
2022-09-15T18:11:13.932Z,1.20
2022-09-15T18:14:17.419Z,1.10
2022-09-15T18:17:20.592Z,0.90
2022-09-15T18:20:27.513Z,0.80
2022-09-15T18:23:30.526Z,0.90
2022-09-15T18:26:34.356Z,0.70
2022-09-15T18:29:39.352Z,1.00
2022-09-15T18:32:43.028Z,0.70
2022-09-15T18:35:50.106Z,0.70
2022-09-15T18:38:53.376Z,0.70
2022-09-15T18:41:56.553Z,1.10
2022-09-15T18:44:59.728Z,0.70
2022-09-15T18:48:02.802Z,0.80
2022-09-15T18:51:23.646Z,0.90
2022-09-15T18:54:27.984Z,1.00
2022-09-15T18:57:37.707Z,1.00
2022-09-15T19:00:44.338Z,1.00
2022-09-15T19:03:47.747Z,0.70
2022-09-15T19:06:51.497Z,0.80
2022-09-15T19:09:56.900Z,0.60
2022-09-15T19:13:00.763Z,0.70
2022-09-15T19:16:06.749Z,0.70
2022-09-15T19:19:09.875Z,0.80
2022-09-15T19:22:17.557Z,0.70
2022-09-15T19:25:23.107Z,0.60
2022-09-15T19:28:27.800Z,0.90
2022-09-15T19:31:32.514Z,0.50
2022-09-15T19:34:41.545Z,0.70
2022-09-15T19:37:48.175Z,0.60
2022-09-15T19:40:54.632Z,0.60
2022-09-15T19:43:57.803Z,0.60
2022-09-15T19:47:00.981Z,0.70
2022-09-15T19:50:05.998Z,0.70
2022-09-15T19:53:10.311Z,0.70
2022-09-15T19:56:19.057Z,0.50
2022-09-15T19:59:22.283Z,0.60
2022-09-15T20:02:25.624Z,0.60
2022-09-15T20:05:28.945Z,0.50
2022-09-15T20:08:32.020Z,0.70
2022-09-15T20:11:35.931Z,0.40
2022-09-15T20:14:39.195Z,0.50
2022-09-15T20:17:42.614Z,0.60
2022-09-15T20:20:45.647Z,0.40
2022-09-15T20:23:48.876Z,0.50
2022-09-15T20:26:52.211Z,0.60
2022-09-15T20:29:57.432Z,0.50
2022-09-15T20:33:00.505Z,0.50
2022-09-15T20:36:17.907Z,0.70
2022-09-15T20:39:22.582Z,0.60
2022-09-15T20:42:25.490Z,0.40
2022-09-15T20:45:28.459Z,0.50
2022-09-15T20:48:33.609Z,0.30
2022-09-15T20:51:36.860Z,0.60
2022-09-15T20:54:39.838Z,0.50
2022-09-15T20:57:43.325Z,0.60
2022-09-15T21:00:49.063Z,0.60
2022-09-15T21:03:55.569Z,0.40
2022-09-15T21:06:59.520Z,0.30
2022-09-15T21:10:02.514Z,0.40
2022-09-15T21:13:07.292Z,0.50
2022-09-15T21:16:14.850Z,0.70
2022-09-15T21:19:18.347Z,0.40
2022-09-15T21:22:21.222Z,0.50
2022-09-15T21:25:24.508Z,0.40
2022-09-15T21:28:29.679Z,0.30
2022-09-15T21:31:33.469Z,0.30
2022-09-15T21:34:36.481Z,0.40
2022-09-15T21:37:39.659Z,0.40
2022-09-15T21:40:50.717Z,0.30
2022-09-15T21:43:55.340Z,0.60
2022-09-15T21:46:59.321Z,0.50
2022-09-15T21:50:03.115Z,0.60
2022-09-15T21:53:06.319Z,0.50
2022-09-15T21:56:12.155Z,0.40
2022-09-15T21:59:15.203Z,0.40
2022-09-15T22:02:18.442Z,0.70
2022-09-15T22:05:21.556Z,0.70
2022-09-15T22:08:24.834Z,0.40
2022-09-15T22:11:27.924Z,0.60
2022-09-15T22:14:31.494Z,0.40
2022-09-15T22:17:34.672Z,0.50
2022-09-15T22:20:37.646Z,0.50
2022-09-15T22:23:43.120Z,0.50
2022-09-15T22:26:46.042Z,0.30
2022-09-15T22:29:53.316Z,0.30
2022-09-15T22:32:56.287Z,0.30
2022-09-15T22:35:59.673Z,0.40
2022-09-15T22:39:06.820Z,0.60
2022-09-15T22:42:11.359Z,0.50
2022-09-15T22:45:14.547Z,0.20
2022-09-15T22:48:17.698Z,0.40
2022-09-15T22:51:20.669Z,0.50
2022-09-15T22:54:23.643Z,0.40
2022-09-15T22:57:26.513Z,0.50
2022-09-15T23:00:30.541Z,0.40
2022-09-15T23:03:34.217Z,0.20
2022-09-15T23:06:37.679Z,0.30
2022-09-15T23:09:41.879Z,0.80
2022-09-15T23:12:44.852Z,0.50
2022-09-15T23:15:49.300Z,0.30
2022-09-15T23:18:53.662Z,0.30
2022-09-15T23:21:56.635Z,0.30
2022-09-15T23:24:59.507Z,0.40
2022-09-15T23:28:02.785Z,0.30
2022-09-15T23:31:06.935Z,0.20
2022-09-15T23:34:10.160Z,0.30
2022-09-15T23:37:13.032Z,0.50
2022-09-15T23:40:16.449Z,0.30
2022-09-15T23:43:19.898Z,0.10
2022-09-15T23:46:22.797Z,0.30
2022-09-15T23:49:26.047Z,0.50
2022-09-15T23:52:29.015Z,0.40
2022-09-15T23:55:32.238Z,0.40
2022-09-15T23:58:35.165Z,0.20
